Fair Seas — V7PD2 — position and weather

sailwx.info

Track history (hours):
 
Tides and Currents Weather Stations Pressure Air Temp Water Temp Dewpoint Dewpoint Depression Visibility Wind Speed Wind Dir Waves Ship Positions

Fair Seas

Last reported at 2017-May-25 02:41 UTC. Time now 2017-May-26 14:55 UTC.
Position N 51°19' E 004°19'.

Length 250 m; draft 13.7 m.

Type: Ship (hazmat cat C). MMSI: 538003211.

Date/timePositionNaut miles runAvg speedWind from/ knotsBaromVisibWave heightAir tempDewpointWater temp
2017-May-25 02:41N 51°19' E 004°19'0 0.1
2017-May-25 02:30N 51°19' E 004°19'2 3.3
2017-May-25 02:00N 51°21' E 004°18'0 0.7
2017-May-25 01:31N 51°21' E 004°17'0 0.0
2017-May-25 01:00N 51°21' E 004°17'0 0.3
2017-May-25 00:30N 51°21' E 004°17'2 3.7
2017-May-25 00:01N 51°21' E 004°14'3 6.6
2017-May-24 23:31N 51°23' E 004°09'5 9.4
2017-May-24 23:00N 51°24' E 004°02'3 5.7
2017-May-24 22:30N 51°24' E 003°58'611.5
2017-May-24 22:00N 51°21' E 003°50'611.3
2017-May-24 21:30N 51°24' E 003°43'5 9.1
2017-May-24 21:00N 51°26' E 003°36'5 9.7
2017-May-24 20:31N 51°25' E 003°29'611.8
2017-May-24 20:01N 51°24' E 003°19'510.8
2017-May-24 19:31N 51°24' E 003°11'510.8
2017-May-24 19:00N 51°25' E 003°02'510.7
2017-May-24 18:31N 51°25' E 002°53'5 9.6
2017-May-24 18:01N 51°24' E 002°46'4 7.2
2017-May-24 17:31N 51°24' E 002°40'2 4.7
2017-May-24 17:01N 51°26' E 002°38'1 1.7
2017-May-24 16:30N 51°26' E 002°37'0 0.3
2017-May-24 16:00N 51°26' E 002°37'0 0.1
2017-May-24 15:30N 51°26' E 002°37'0 0.0
2017-May-24 14:57N 51°26' E 002°37'0 0.0
2017-May-24 14:30N 51°26' E 002°37'0 0.0
2017-May-24 13:30N 51°26' E 002°37'0 0.0
2017-May-24 13:00N 51°26' E 002°37'0 0.0
2017-May-24 12:30N 51°26' E 002°37'0 0.0
2017-May-24 12:00N 51°26' E 002°37'0 0.0
2017-May-24 11:30N 51°26' E 002°37'0 0.1
2017-May-24 11:00N 51°26' E 002°37'0 0.0
2017-May-24 10:30N 51°26' E 002°37'0 0.0
2017-May-24 10:00N 51°26' E 002°37'0 0.2
2017-May-24 09:30N 51°26' E 002°37'0 0.3
2017-May-24 09:00N 51°26' E 002°37'0 0.2
2017-May-24 08:30N 51°26' E 002°37'0 0.7
2017-May-24 08:01N 51°26' E 002°37'2 4.6
2017-May-24 07:31N 51°24' E 002°36'2 4.5
2017-May-24 07:01N 51°22' E 002°33'3 6.1
2017-May-24 06:30N 51°22' E 002°28'4 9.0
2017-May-24 06:01N 51°20' E 002°21'5 9.5
2017-May-24 05:30N 51°17' E 002°15'5 9.6
2017-May-24 05:00N 51°14' E 002°09'5 9.8
2017-May-24 04:30N 51°12' E 002°02'5 9.9
2017-May-24 04:00N 51°10' E 001°55'5 9.8
2017-May-24 03:30N 51°08' E 001°48'5 9.6
2017-May-24 03:01N 51°05' E 001°42'510.6
2017-May-24 02:30N 51°01' E 001°37'611.1
2017-May-24 02:00N 50°56' E 001°31'611.3
2017-May-24 01:30N 50°51' E 001°27'611.8
2017-May-24 01:00N 50°46' E 001°24'3310.9
2017-May-23 22:00N 50°27' E 000°43'711.5
2017-May-23 21:24N 50°25' E 000°32'511.8
2017-May-23 20:58N 50°23' E 000°25'612.0
2017-May-23 20:30N 50°21' E 000°16'612.6
2017-May-23 20:00N 50°20' E 000°07'713.1
2017-May-23 19:28N 50°18' W 000°04'613.4
2017-May-23 19:00N 50°16' W 000°13'713.7
2017-May-23 18:28N 50°15' W 000°24'9410.5
2017-May-23 09:28N 49°50' W 002°46'5 9.9
2017-May-23 09:00N 49°49' W 002°52'1010.6
2017-May-23 08:04N 49°46' W 003°07'111.0
2017-May-23 08:00N 49°46' W 003°08'711.0
2017-May-23 07:20N 49°43' W 003°19'2411.4
2017-May-23 05:12N 49°30' W 003°51'511.7
2017-May-23 04:48N 49°28' W 003°57'511.8
2017-May-23 04:23N 49°25' W 004°03'612.0
2017-May-23 03:55N 49°22' W 004°11'512.1
2017-May-23 03:30N 49°20' W 004°17'812.3
2017-May-23 02:53N 49°16' W 004°27'512.3
2017-May-23 02:30N 49°13' W 004°33'812.2
2017-May-23 01:53N 49°09' W 004°43'512.2
2017-May-23 01:30N 49°07' W 004°50'612.4
2017-May-23 01:00N 49°04' W 004°58'612.3
2017-May-23 00:30N 49°01' W 005°05'612.3
2017-May-23 00:00N 48°57' W 005°13'611.8
2017-May-22 23:30N 48°54' W 005°21'5 9.6
2017-May-22 23:00N 48°52' W 005°27'5 8.2
2017-May-22 22:24N 48°49' W 005°34'4 9.1
2017-May-22 21:56N 48°47' W 005°39'611.2
2017-May-22 21:24N 48°41' W 005°43'1510.6
2017-May-22 20:00N 48°28' W 005°54'31 9.9
2017-May-22 16:52N 48°01' W 006°16'410.0
2017-May-22 16:29N 47°58' W 006°19'710.2
2017-May-22 15:48N 47°52' W 006°24'42310.5
2017-May-20 23:27N 41°17' W 009°57'510.5
2017-May-20 23:00N 41°12' W 009°57'510.5
2017-May-20 22:30N 41°07' W 009°57'510.8
2017-May-20 22:00N 41°02' W 009°57'510.7
2017-May-20 21:30N 40°56' W 009°57'510.6
2017-May-20 21:00N 40°51' W 009°57'510.5
2017-May-20 20:30N 40°46' W 009°57'510.3
2017-May-20 20:00N 40°41' W 009°57'510.2
2017-May-20 19:31N 40°36' W 009°57'510.2
2017-May-20 19:00N 40°31' W 009°57'510.1
2017-May-20 18:30N 40°25' W 009°57'5 9.9
2017-May-20 18:01N 40°21' W 009°58'5 9.9
2017-May-20 17:30N 40°16' W 009°57'5 9.9
2017-May-20 17:01N 40°11' W 009°57'510.0
2017-May-20 16:30N 40°06' W 009°57'5 9.8
2017-May-20 16:00N 40°01' W 009°57'5 9.8
2017-May-20 15:30N 39°56' W 009°57'510.0
2017-May-20 15:00N 39°51' W 009°57'1010.0
2017-May-20 14:01N 39°41' W 009°57'5 9.7
2017-May-20 13:30N 39°36' W 009°57'5 9.9
2017-May-20 13:00N 39°31' W 009°57'510.0
2017-May-20 12:30N 39°26' W 009°57'5 9.9
2017-May-20 12:00N 39°21' W 009°57'5 9.8
2017-May-20 11:30N 39°16' W 009°57'5 9.8
2017-May-20 11:00N 39°11' W 009°57'5 9.8
2017-May-20 10:30N 39°06' W 009°57'5 9.9
2017-May-20 10:00N 39°01' W 009°56'5 9.6
2017-May-20 09:31N 38°57' W 009°56'5 9.6
2017-May-20 09:00N 38°52' W 009°57'5 9.6
2017-May-20 08:31N 38°47' W 009°57'5 9.8
2017-May-20 08:01N 38°42' W 009°56'5 9.7
2017-May-20 07:31N 38°37' W 009°55'510.1
2017-May-20 07:00N 38°32' W 009°54'5 9.7
2017-May-20 06:31N 38°28' W 009°52'510.0
2017-May-20 06:01N 38°23' W 009°51'5 9.9
2017-May-20 05:30N 38°18' W 009°49'5 9.9
2017-May-20 05:00N 38°13' W 009°48'510.0
2017-May-20 04:30N 38°08' W 009°47'510.3
2017-May-20 04:01N 38°03' W 009°45'510.1
2017-May-20 03:30N 37°58' W 009°44'510.2
2017-May-20 03:00N 37°53' W 009°42'510.2
2017-May-20 02:31N 37°48' W 009°41'510.2
2017-May-20 02:01N 37°44' W 009°40'510.2
2017-May-20 01:31N 37°39' W 009°38'510.2
2017-May-20 01:01N 37°34' W 009°36'27 9.8
2017-May-19 22:15N 37°07' W 009°29'9 9.6
2017-May-19 21:21N 36°59' W 009°26'3 9.8
2017-May-19 21:00N 36°56' W 009°25'6 9.8
2017-May-19 20:25N 36°50' W 009°23'4 9.9
2017-May-19 20:01N 36°47' W 009°19'5 9.7
2017-May-19 19:30N 36°44' W 009°15'5 9.6
2017-May-19 19:01N 36°40' W 009°11'510.0
2017-May-19 18:30N 36°39' W 009°05'510.0
2017-May-19 17:59N 36°37' W 008°59'6 9.9
2017-May-19 17:23N 36°34' W 008°52'5 9.9
2017-May-19 16:52N 36°32' W 008°47'7 9.7
2017-May-19 16:09N 36°31' W 008°38'1 9.9
2017-May-19 16:00N 36°30' W 008°36'510.1
2017-May-19 15:30N 36°28' W 008°30'510.3
2017-May-19 14:59N 36°27' W 008°24'1010.4
2017-May-19 14:01N 36°23' W 008°12'610.5
2017-May-19 13:28N 36°21' W 008°06'2610.9
2017-May-19 11:08N 36°14' W 007°35'311.4
2017-May-19 10:51N 36°13' W 007°31'9411.2
2017-May-19 02:24N 35°58' W 005°36'4 9.0
2017-May-19 02:00N 35°59' W 005°32'4 8.3
2017-May-19 01:30N 36°00' W 005°28'4 7.5
2017-May-19 01:00N 36°02' W 005°23'3 5.8
2017-May-19 00:30N 36°04' W 005°21'2 3.5
2017-May-19 00:00N 36°03' W 005°20'4 7.8
2017-May-18 23:30N 36°04' W 005°15'510.1
2017-May-18 23:00N 36°05' W 005°09'89 9.0
2017-May-18 13:02N 36°17' W 003°19'010.2
2017-May-18 12:59N 36°18' W 003°18'12310.9
2017-May-18 01:39N 36°41' W 000°48'2311.3
2017-May-17 23:36N 36°46' W 000°20'211.2
2017-May-17 23:23N 36°47' W 000°17'411.1
2017-May-17 23:00N 36°48' W 000°12'611.2
2017-May-17 22:30N 36°49' W 000°05'611.2
2017-May-17 21:58N 36°50' E 000°02'511.3
2017-May-17 21:30N 36°51' E 000°09'611.4
2017-May-17 21:00N 36°53' E 000°16'611.5
2017-May-17 20:30N 36°54' E 000°23'611.6
2017-May-17 20:00N 36°55' E 000°30'611.8
2017-May-17 19:30N 36°56' E 000°37'611.7
2017-May-17 19:00N 36°58' E 000°44'611.4
2017-May-17 18:30N 36°59' E 000°51'611.2
2017-May-17 18:00N 37°00' E 000°58'611.1
2017-May-17 17:30N 37°01' E 001°05'510.8
2017-May-17 17:00N 37°03' E 001°12'510.8
2017-May-17 16:30N 37°04' E 001°18'510.8
2017-May-17 16:00N 37°05' E 001°25'510.5
2017-May-17 15:30N 37°06' E 001°31'510.5
2017-May-17 15:00N 37°07' E 001°38'511.0
2017-May-17 14:30N 37°08' E 001°44'1111.2
2017-May-17 13:30N 37°11' E 001°58'611.4
2017-May-17 13:00N 37°12' E 002°05'611.5
2017-May-17 12:30N 37°13' E 002°12'611.4
2017-May-17 12:00N 37°15' E 002°19'1311.6
2017-May-17 10:53N 37°17' E 002°35'512.1
2017-May-17 10:30N 37°18' E 002°41'612.4
2017-May-17 10:00N 37°20' E 002°48'612.4
2017-May-17 09:30N 37°21' E 002°56'712.3
2017-May-17 08:58N 37°23' E 003°04'1212.2
2017-May-17 07:58N 37°25' E 003°19'1611.9
2017-May-17 06:36N 37°29' E 003°39'111.9
2017-May-17 06:30N 37°29' E 003°40'611.9
2017-May-17 06:00N 37°30' E 003°48'611.9
2017-May-17 05:30N 37°32' E 003°55'611.9
2017-May-17 05:00N 37°33' E 004°02'612.0
2017-May-17 04:30N 37°34' E 004°10'612.0
2017-May-17 04:00N 37°36' E 004°17'611.9
2017-May-17 03:30N 37°37' E 004°24'611.8
2017-May-17 03:00N 37°38' E 004°32'611.7
2017-May-17 02:30N 37°39' E 004°39'611.8
2017-May-17 02:00N 37°41' E 004°46'611.8
2017-May-17 01:30N 37°42' E 004°53'812.0
2017-May-17 00:49N 37°44' E 005°04'812.0
2017-May-17 00:07N 37°46' E 005°14'11010.3
2017-May-16 13:26N 37°54' E 007°33'510.5
2017-May-16 13:00N 37°54' E 007°39'711.2
2017-May-16 12:25N 37°54' E 007°47'611.4
2017-May-16 11:54N 37°54' E 007°55'411.5
2017-May-16 11:30N 37°54' E 008°00'611.4
2017-May-16 10:57N 37°54' E 008°08'511.3
2017-May-16 10:31N 37°54' E 008°15'4911.0
2017-May-16 06:01N 37°54' E 009°17'211.1
2017-May-16 05:52N 37°54' E 009°19'411.1
2017-May-16 05:29N 37°54' E 009°25'911.2
2017-May-16 04:39N 37°54' E 009°37'211.4
2017-May-16 04:30N 37°54' E 009°39'10611.1
2017-May-15 18:59N 37°13' E 011°42'611.8
2017-May-15 18:29N 37°10' E 011°48'611.4
2017-May-15 17:59N 37°07' E 011°54'1111.2
2017-May-15 16:58N 37°01' E 012°07'510.8
2017-May-15 16:30N 36°60' E 012°12'510.7
2017-May-15 16:00N 36°59' E 012°19'510.6
2017-May-15 15:30N 36°57' E 012°25'510.9
2017-May-15 15:00N 36°54' E 012°31'510.7
2017-May-15 14:30N 36°52' E 012°37'1110.8
2017-May-15 13:30N 36°48' E 012°50'611.2
2017-May-15 13:00N 36°46' E 012°56'611.1
2017-May-15 12:30N 36°44' E 013°03'611.3
2017-May-15 11:59N 36°41' E 013°09'511.5
2017-May-15 11:30N 36°39' E 013°15'611.6
2017-May-15 11:00N 36°36' E 013°22'611.8
2017-May-15 10:30N 36°34' E 013°28'711.9
2017-May-15 09:55N 36°30' E 013°36'511.9
2017-May-15 09:30N 36°28' E 013°42'611.7
2017-May-15 09:00N 36°26' E 013°48'611.8
2017-May-15 08:30N 36°24' E 013°55'611.8
2017-May-15 08:00N 36°21' E 014°02'611.7
2017-May-15 07:30N 36°19' E 014°08'611.7
2017-May-15 07:00N 36°16' E 014°15'611.8
2017-May-15 06:30N 36°14' E 014°22'611.6
2017-May-15 06:00N 36°11' E 014°28'611.6
2017-May-15 05:30N 36°08' E 014°34'611.3
2017-May-15 05:00N 36°06' E 014°40'4 8.0
2017-May-15 04:30N 36°04' E 014°45'3 6.8
2017-May-15 04:00N 36°03' E 014°49'5 9.7
2017-May-15 03:30N 36°01' E 014°54'611.1
2017-May-15 03:00N 35°59' E 015°01'  
Track history (hours):
 
Tides and Currents Weather Stations Pressure Air Temp Water Temp Dewpoint Dewpoint Depression Visibility Wind Speed Wind Dir Waves Ship Positions

Fair Seas

Last reported at 2017-May-25 02:41 UTC. Time now 2017-May-26 14:55 UTC.
Position N 51°19' E 004°19'.

Length 250 m; draft 13.7 m.

Type: Ship (hazmat cat C). MMSI: 538003211.

Date/timePositionNaut miles runAvg speedWind from/ knotsBaromVisibWave heightAir tempDewpointWater temp
2017-May-25 02:41N 51°19' E 004°19'0 0.1
2017-May-25 02:30N 51°19' E 004°19'2 3.3
2017-May-25 02:00N 51°21' E 004°18'0 0.7
2017-May-25 01:31N 51°21' E 004°17'0 0.0
2017-May-25 01:00N 51°21' E 004°17'0 0.3
2017-May-25 00:30N 51°21' E 004°17'2 3.7
2017-May-25 00:01N 51°21' E 004°14'3 6.6
2017-May-24 23:31N 51°23' E 004°09'5 9.4
2017-May-24 23:00N 51°24' E 004°02'3 5.7
2017-May-24 22:30N 51°24' E 003°58'611.5
2017-May-24 22:00N 51°21' E 003°50'611.3
2017-May-24 21:30N 51°24' E 003°43'5 9.1
2017-May-24 21:00N 51°26' E 003°36'5 9.7
2017-May-24 20:31N 51°25' E 003°29'611.8
2017-May-24 20:01N 51°24' E 003°19'510.8
2017-May-24 19:31N 51°24' E 003°11'510.8
2017-May-24 19:00N 51°25' E 003°02'510.7
2017-May-24 18:31N 51°25' E 002°53'5 9.6
2017-May-24 18:01N 51°24' E 002°46'4 7.2
2017-May-24 17:31N 51°24' E 002°40'2 4.7
2017-May-24 17:01N 51°26' E 002°38'1 1.7
2017-May-24 16:30N 51°26' E 002°37'0 0.3
2017-May-24 16:00N 51°26' E 002°37'0 0.1
2017-May-24 15:30N 51°26' E 002°37'0 0.0
2017-May-24 14:57N 51°26' E 002°37'0 0.0
2017-May-24 14:30N 51°26' E 002°37'0 0.0
2017-May-24 13:30N 51°26' E 002°37'0 0.0
2017-May-24 13:00N 51°26' E 002°37'0 0.0
2017-May-24 12:30N 51°26' E 002°37'0 0.0
2017-May-24 12:00N 51°26' E 002°37'0 0.0
2017-May-24 11:30N 51°26' E 002°37'0 0.1
2017-May-24 11:00N 51°26' E 002°37'0 0.0
2017-May-24 10:30N 51°26' E 002°37'0 0.0
2017-May-24 10:00N 51°26' E 002°37'0 0.2
2017-May-24 09:30N 51°26' E 002°37'0 0.3
2017-May-24 09:00N 51°26' E 002°37'0 0.2
2017-May-24 08:30N 51°26' E 002°37'0 0.7
2017-May-24 08:01N 51°26' E 002°37'2 4.6
2017-May-24 07:31N 51°24' E 002°36'2 4.5
2017-May-24 07:01N 51°22' E 002°33'3 6.1
2017-May-24 06:30N 51°22' E 002°28'4 9.0
2017-May-24 06:01N 51°20' E 002°21'5 9.5
2017-May-24 05:30N 51°17' E 002°15'5 9.6
2017-May-24 05:00N 51°14' E 002°09'5 9.8
2017-May-24 04:30N 51°12' E 002°02'5 9.9
2017-May-24 04:00N 51°10' E 001°55'5 9.8
2017-May-24 03:30N 51°08' E 001°48'5 9.6
2017-May-24 03:01N 51°05' E 001°42'510.6
2017-May-24 02:30N 51°01' E 001°37'611.1
2017-May-24 02:00N 50°56' E 001°31'611.3
2017-May-24 01:30N 50°51' E 001°27'611.8
2017-May-24 01:00N 50°46' E 001°24'3310.9
2017-May-23 22:00N 50°27' E 000°43'711.5
2017-May-23 21:24N 50°25' E 000°32'511.8
2017-May-23 20:58N 50°23' E 000°25'612.0
2017-May-23 20:30N 50°21' E 000°16'612.6
2017-May-23 20:00N 50°20' E 000°07'713.1
2017-May-23 19:28N 50°18' W 000°04'613.4
2017-May-23 19:00N 50°16' W 000°13'713.7
2017-May-23 18:28N 50°15' W 000°24'9410.5
2017-May-23 09:28N 49°50' W 002°46'5 9.9
2017-May-23 09:00N 49°49' W 002°52'1010.6
2017-May-23 08:04N 49°46' W 003°07'111.0
2017-May-23 08:00N 49°46' W 003°08'711.0
2017-May-23 07:20N 49°43' W 003°19'2411.4
2017-May-23 05:12N 49°30' W 003°51'511.7
2017-May-23 04:48N 49°28' W 003°57'511.8
2017-May-23 04:23N 49°25' W 004°03'612.0
2017-May-23 03:55N 49°22' W 004°11'512.1
2017-May-23 03:30N 49°20' W 004°17'812.3
2017-May-23 02:53N 49°16' W 004°27'512.3
2017-May-23 02:30N 49°13' W 004°33'812.2
2017-May-23 01:53N 49°09' W 004°43'512.2
2017-May-23 01:30N 49°07' W 004°50'612.4
2017-May-23 01:00N 49°04' W 004°58'612.3
2017-May-23 00:30N 49°01' W 005°05'612.3
2017-May-23 00:00N 48°57' W 005°13'611.8
2017-May-22 23:30N 48°54' W 005°21'5 9.6
2017-May-22 23:00N 48°52' W 005°27'5 8.2
2017-May-22 22:24N 48°49' W 005°34'4 9.1
2017-May-22 21:56N 48°47' W 005°39'611.2
2017-May-22 21:24N 48°41' W 005°43'1510.6
2017-May-22 20:00N 48°28' W 005°54'31 9.9
2017-May-22 16:52N 48°01' W 006°16'410.0
2017-May-22 16:29N 47°58' W 006°19'710.2
2017-May-22 15:48N 47°52' W 006°24'42310.5
2017-May-20 23:27N 41°17' W 009°57'510.5
2017-May-20 23:00N 41°12' W 009°57'510.5
2017-May-20 22:30N 41°07' W 009°57'510.8
2017-May-20 22:00N 41°02' W 009°57'510.7
2017-May-20 21:30N 40°56' W 009°57'510.6
2017-May-20 21:00N 40°51' W 009°57'510.5
2017-May-20 20:30N 40°46' W 009°57'510.3
2017-May-20 20:00N 40°41' W 009°57'510.2
2017-May-20 19:31N 40°36' W 009°57'510.2
2017-May-20 19:00N 40°31' W 009°57'510.1
2017-May-20 18:30N 40°25' W 009°57'5 9.9
2017-May-20 18:01N 40°21' W 009°58'5 9.9
2017-May-20 17:30N 40°16' W 009°57'5 9.9
2017-May-20 17:01N 40°11' W 009°57'510.0
2017-May-20 16:30N 40°06' W 009°57'5 9.8
2017-May-20 16:00N 40°01' W 009°57'5 9.8
2017-May-20 15:30N 39°56' W 009°57'510.0
2017-May-20 15:00N 39°51' W 009°57'1010.0
2017-May-20 14:01N 39°41' W 009°57'5 9.7
2017-May-20 13:30N 39°36' W 009°57'5 9.9
2017-May-20 13:00N 39°31' W 009°57'510.0
2017-May-20 12:30N 39°26' W 009°57'5 9.9
2017-May-20 12:00N 39°21' W 009°57'5 9.8
2017-May-20 11:30N 39°16' W 009°57'5 9.8
2017-May-20 11:00N 39°11' W 009°57'5 9.8
2017-May-20 10:30N 39°06' W 009°57'5 9.9
2017-May-20 10:00N 39°01' W 009°56'5 9.6
2017-May-20 09:31N 38°57' W 009°56'5 9.6
2017-May-20 09:00N 38°52' W 009°57'5 9.6
2017-May-20 08:31N 38°47' W 009°57'5 9.8
2017-May-20 08:01N 38°42' W 009°56'5 9.7
2017-May-20 07:31N 38°37' W 009°55'510.1
2017-May-20 07:00N 38°32' W 009°54'5 9.7
2017-May-20 06:31N 38°28' W 009°52'510.0
2017-May-20 06:01N 38°23' W 009°51'5 9.9
2017-May-20 05:30N 38°18' W 009°49'5 9.9
2017-May-20 05:00N 38°13' W 009°48'510.0
2017-May-20 04:30N 38°08' W 009°47'510.3
2017-May-20 04:01N 38°03' W 009°45'510.1
2017-May-20 03:30N 37°58' W 009°44'510.2
2017-May-20 03:00N 37°53' W 009°42'510.2
2017-May-20 02:31N 37°48' W 009°41'510.2
2017-May-20 02:01N 37°44' W 009°40'510.2
2017-May-20 01:31N 37°39' W 009°38'510.2
2017-May-20 01:01N 37°34' W 009°36'27 9.8
2017-May-19 22:15N 37°07' W 009°29'9 9.6
2017-May-19 21:21N 36°59' W 009°26'3 9.8
2017-May-19 21:00N 36°56' W 009°25'6 9.8
2017-May-19 20:25N 36°50' W 009°23'4 9.9
2017-May-19 20:01N 36°47' W 009°19'5 9.7
2017-May-19 19:30N 36°44' W 009°15'5 9.6
2017-May-19 19:01N 36°40' W 009°11'510.0
2017-May-19 18:30N 36°39' W 009°05'510.0
2017-May-19 17:59N 36°37' W 008°59'6 9.9
2017-May-19 17:23N 36°34' W 008°52'5 9.9
2017-May-19 16:52N 36°32' W 008°47'7 9.7
2017-May-19 16:09N 36°31' W 008°38'1 9.9
2017-May-19 16:00N 36°30' W 008°36'510.1
2017-May-19 15:30N 36°28' W 008°30'510.3
2017-May-19 14:59N 36°27' W 008°24'1010.4
2017-May-19 14:01N 36°23' W 008°12'610.5
2017-May-19 13:28N 36°21' W 008°06'2610.9
2017-May-19 11:08N 36°14' W 007°35'311.4
2017-May-19 10:51N 36°13' W 007°31'9411.2
2017-May-19 02:24N 35°58' W 005°36'4 9.0
2017-May-19 02:00N 35°59' W 005°32'4 8.3
2017-May-19 01:30N 36°00' W 005°28'4 7.5
2017-May-19 01:00N 36°02' W 005°23'3 5.8
2017-May-19 00:30N 36°04' W 005°21'2 3.5
2017-May-19 00:00N 36°03' W 005°20'4 7.8
2017-May-18 23:30N 36°04' W 005°15'510.1
2017-May-18 23:00N 36°05' W 005°09'89 9.0
2017-May-18 13:02N 36°17' W 003°19'010.2
2017-May-18 12:59N 36°18' W 003°18'12310.9
2017-May-18 01:39N 36°41' W 000°48'2311.3
2017-May-17 23:36N 36°46' W 000°20'211.2
2017-May-17 23:23N 36°47' W 000°17'411.1
2017-May-17 23:00N 36°48' W 000°12'611.2
2017-May-17 22:30N 36°49' W 000°05'611.2
2017-May-17 21:58N 36°50' E 000°02'511.3
2017-May-17 21:30N 36°51' E 000°09'611.4
2017-May-17 21:00N 36°53' E 000°16'611.5
2017-May-17 20:30N 36°54' E 000°23'611.6
2017-May-17 20:00N 36°55' E 000°30'611.8
2017-May-17 19:30N 36°56' E 000°37'611.7
2017-May-17 19:00N 36°58' E 000°44'611.4
2017-May-17 18:30N 36°59' E 000°51'611.2
2017-May-17 18:00N 37°00' E 000°58'611.1
2017-May-17 17:30N 37°01' E 001°05'510.8
2017-May-17 17:00N 37°03' E 001°12'510.8
2017-May-17 16:30N 37°04' E 001°18'510.8
2017-May-17 16:00N 37°05' E 001°25'510.5
2017-May-17 15:30N 37°06' E 001°31'510.5
2017-May-17 15:00N 37°07' E 001°38'511.0
2017-May-17 14:30N 37°08' E 001°44'1111.2
2017-May-17 13:30N 37°11' E 001°58'611.4
2017-May-17 13:00N 37°12' E 002°05'611.5
2017-May-17 12:30N 37°13' E 002°12'611.4
2017-May-17 12:00N 37°15' E 002°19'1311.6
2017-May-17 10:53N 37°17' E 002°35'512.1
2017-May-17 10:30N 37°18' E 002°41'612.4
2017-May-17 10:00N 37°20' E 002°48'612.4
2017-May-17 09:30N 37°21' E 002°56'712.3
2017-May-17 08:58N 37°23' E 003°04'1212.2
2017-May-17 07:58N 37°25' E 003°19'1611.9
2017-May-17 06:36N 37°29' E 003°39'111.9
2017-May-17 06:30N 37°29' E 003°40'611.9
2017-May-17 06:00N 37°30' E 003°48'611.9
2017-May-17 05:30N 37°32' E 003°55'611.9
2017-May-17 05:00N 37°33' E 004°02'612.0
2017-May-17 04:30N 37°34' E 004°10'612.0
2017-May-17 04:00N 37°36' E 004°17'611.9
2017-May-17 03:30N 37°37' E 004°24'611.8
2017-May-17 03:00N 37°38' E 004°32'611.7
2017-May-17 02:30N 37°39' E 004°39'611.8
2017-May-17 02:00N 37°41' E 004°46'611.8
2017-May-17 01:30N 37°42' E 004°53'812.0
2017-May-17 00:49N 37°44' E 005°04'812.0
2017-May-17 00:07N 37°46' E 005°14'11010.3
2017-May-16 13:26N 37°54' E 007°33'510.5
2017-May-16 13:00N 37°54' E 007°39'711.2
2017-May-16 12:25N 37°54' E 007°47'611.4
2017-May-16 11:54N 37°54' E 007°55'411.5
2017-May-16 11:30N 37°54' E 008°00'611.4
2017-May-16 10:57N 37°54' E 008°08'511.3
2017-May-16 10:31N 37°54' E 008°15'4911.0
2017-May-16 06:01N 37°54' E 009°17'211.1
2017-May-16 05:52N 37°54' E 009°19'411.1
2017-May-16 05:29N 37°54' E 009°25'911.2
2017-May-16 04:39N 37°54' E 009°37'211.4
2017-May-16 04:30N 37°54' E 009°39'10611.1
2017-May-15 18:59N 37°13' E 011°42'611.8
2017-May-15 18:29N 37°10' E 011°48'611.4
2017-May-15 17:59N 37°07' E 011°54'1111.2
2017-May-15 16:58N 37°01' E 012°07'510.8
2017-May-15 16:30N 36°60' E 012°12'510.7
2017-May-15 16:00N 36°59' E 012°19'510.6
2017-May-15 15:30N 36°57' E 012°25'510.9
2017-May-15 15:00N 36°54' E 012°31'510.7
2017-May-15 14:30N 36°52' E 012°37'1110.8
2017-May-15 13:30N 36°48' E 012°50'611.2
2017-May-15 13:00N 36°46' E 012°56'611.1
2017-May-15 12:30N 36°44' E 013°03'611.3
2017-May-15 11:59N 36°41' E 013°09'511.5
2017-May-15 11:30N 36°39' E 013°15'611.6
2017-May-15 11:00N 36°36' E 013°22'611.8
2017-May-15 10:30N 36°34' E 013°28'711.9
2017-May-15 09:55N 36°30' E 013°36'511.9
2017-May-15 09:30N 36°28' E 013°42'611.7
2017-May-15 09:00N 36°26' E 013°48'611.8
2017-May-15 08:30N 36°24' E 013°55'611.8
2017-May-15 08:00N 36°21' E 014°02'611.7
2017-May-15 07:30N 36°19' E 014°08'611.7
2017-May-15 07:00N 36°16' E 014°15'611.8
2017-May-15 06:30N 36°14' E 014°22'611.6
2017-May-15 06:00N 36°11' E 014°28'611.6
2017-May-15 05:30N 36°08' E 014°34'611.3
2017-May-15 05:00N 36°06' E 014°40'4 8.0
2017-May-15 04:30N 36°04' E 014°45'3 6.8
2017-May-15 04:00N 36°03' E 014°49'5 9.7
2017-May-15 03:30N 36°01' E 014°54'611.1
2017-May-15 03:00N 35°59' E 015°01'  

Dump ship's entire track history